createdAt,value
2016-03-23T00:00:30.657Z,997.42
2016-03-23T00:01:30.706Z,997.43
2016-03-23T00:02:30.693Z,997.39
2016-03-23T00:03:30.711Z,997.4
2016-03-23T00:04:30.729Z,997.37
2016-03-23T00:05:30.747Z,997.42
2016-03-23T00:06:30.767Z,997.36
2016-03-23T00:07:30.784Z,997.37
2016-03-23T00:08:30.802Z,997.39
2016-03-23T00:09:30.820Z,997.35
2016-03-23T00:10:30.839Z,997.37
2016-03-23T00:11:30.858Z,997.34
2016-03-23T00:12:30.875Z,997.35
2016-03-23T00:13:30.910Z,997.34
2016-03-23T00:14:30.913Z,997.35
2016-03-23T00:15:30.930Z,997.33
2016-03-23T00:16:30.950Z,997.34
2016-03-23T00:17:30.967Z,997.38
2016-03-23T00:18:30.986Z,997.34
2016-03-23T00:19:30.988Z,997.37
2016-03-23T00:20:31.022Z,997.35
2016-03-23T00:21:31.025Z,997.32
2016-03-23T00:22:31.043Z,997.34
2016-03-23T00:23:31.063Z,997.34
2016-03-23T00:24:31.080Z,997.34
2016-03-23T00:25:31.099Z,997.32
2016-03-23T00:26:31.116Z,997.29
2016-03-23T00:27:31.135Z,997.3
2016-03-23T00:28:31.154Z,997.3
2016-03-23T00:29:31.171Z,997.3
2016-03-23T00:30:31.194Z,997.28
2016-03-23T00:31:31.227Z,997.21
2016-03-23T00:32:31.230Z,997.29
2016-03-23T00:33:31.248Z,997.25
2016-03-23T00:34:31.266Z,997.29
2016-03-23T00:35:31.284Z,997.29
2016-03-23T00:36:31.287Z,997.28
2016-03-23T00:37:31.306Z,997.26
2016-03-23T00:38:31.324Z,997.25
2016-03-23T00:39:31.342Z,997.28
2016-03-23T00:40:31.360Z,997.27
2016-03-23T00:41:31.379Z,997.26
2016-03-23T00:42:31.397Z,997.26
2016-03-23T00:43:31.415Z,997.24
2016-03-23T00:44:31.433Z,997.23
2016-03-23T00:45:31.452Z,997.22
2016-03-23T00:46:31.470Z,997.25
2016-03-23T00:47:31.488Z,997.22
2016-03-23T00:48:31.507Z,997.21
2016-03-23T00:49:31.525Z,997.21
2016-03-23T00:50:31.544Z,997.22
2016-03-23T00:51:31.562Z,997.21
2016-03-23T00:52:31.580Z,997.24
2016-03-23T00:53:31.599Z,997.21
2016-03-23T00:54:31.616Z,997.26
2016-03-23T00:55:31.620Z,997.19
2016-03-23T00:56:31.638Z,997.22
2016-03-23T00:57:31.655Z,997.23
2016-03-23T00:58:31.737Z,997.18
2016-03-23T00:59:31.708Z,997.16
2016-03-23T01:00:31.711Z,997.18
2016-03-23T01:01:31.730Z,997.16
2016-03-23T01:02:31.749Z,997.17
2016-03-23T01:03:31.766Z,997.15
2016-03-23T01:04:31.784Z,997.11
2016-03-23T01:05:31.802Z,997.1
2016-03-23T01:06:31.821Z,997.11
2016-03-23T01:07:31.839Z,997.12
2016-03-23T01:08:31.857Z,997.11
2016-03-23T01:09:31.875Z,997.11
2016-03-23T01:10:31.895Z,997.1
2016-03-23T01:11:31.912Z,997.08
2016-03-23T01:12:31.915Z,997.07
2016-03-23T01:13:31.934Z,997.08
2016-03-23T01:14:31.951Z,997.09
2016-03-23T01:15:31.970Z,997.05
2016-03-23T01:16:31.989Z,997.05
2016-03-23T01:17:32.007Z,997.02
2016-03-23T01:19:52.839Z,996.97
2016-03-23T01:20:49.812Z,997.01
2016-03-23T01:21:49.830Z,996.99
2016-03-23T01:22:49.848Z,996.96
2016-03-23T01:23:49.883Z,997
2016-03-23T01:24:49.885Z,996.98
2016-03-23T01:25:49.903Z,996.98
2016-03-23T01:26:49.922Z,996.97
2016-03-23T01:27:49.941Z,996.99
2016-03-23T01:28:49.974Z,996.92
2016-03-23T01:29:49.976Z,996.96
2016-03-23T01:30:49.995Z,996.94
2016-03-23T01:31:50.013Z,996.95
2016-03-23T01:32:50.032Z,996.91
2016-03-23T01:33:50.050Z,996.94
2016-03-23T01:34:50.069Z,996.93
2016-03-23T01:35:50.087Z,996.95
2016-03-23T01:36:50.104Z,996.94
2016-03-23T01:37:50.107Z,996.94
2016-03-23T01:38:50.141Z,996.89
2016-03-23T01:39:50.144Z,996.92
2016-03-23T01:40:50.162Z,996.88
2016-03-23T01:41:50.181Z,996.91
2016-03-23T01:42:50.199Z,996.92
2016-03-23T01:43:50.295Z,996.91
2016-03-23T01:44:50.236Z,996.9
2016-03-23T01:45:50.254Z,996.91
2016-03-23T01:46:50.272Z,996.91
2016-03-23T01:47:50.290Z,996.91
2016-03-23T01:48:50.309Z,996.89
2016-03-23T01:49:50.327Z,996.89
2016-03-23T01:50:50.330Z,996.93
2016-03-23T01:51:50.348Z,996.91
2016-03-23T01:52:50.367Z,996.9
2016-03-23T01:53:50.385Z,996.92
2016-03-23T01:54:50.403Z,996.89
2016-03-23T01:55:50.422Z,996.89
2016-03-23T01:56:50.455Z,996.86
2016-03-23T01:57:50.458Z,996.89
2016-03-23T01:58:50.476Z,996.85
2016-03-23T01:59:50.495Z,996.87
2016-03-23T02:00:50.513Z,996.82
2016-03-23T02:01:50.531Z,996.85
2016-03-23T02:02:50.550Z,996.84
2016-03-23T02:03:50.552Z,996.83
2016-03-23T02:04:50.586Z,996.85
2016-03-23T02:05:50.589Z,996.83
2016-03-23T02:06:50.608Z,996.83
2016-03-23T02:07:50.626Z,996.83
2016-03-23T02:08:50.651Z,996.85
2016-03-23T02:09:50.667Z,996.81
2016-03-23T02:10:50.678Z,996.86
2016-03-23T02:11:50.703Z,996.83
2016-03-23T02:12:50.707Z,996.79
2016-03-23T02:13:50.725Z,996.84
2016-03-23T02:14:50.743Z,996.82
2016-03-23T02:15:50.761Z,996.84
2016-03-23T02:16:50.780Z,996.81
2016-03-23T02:17:50.798Z,996.82
2016-03-23T02:18:50.816Z,996.78
2016-03-23T02:19:50.834Z,996.77
2016-03-23T02:20:50.843Z,996.78
2016-03-23T02:21:50.862Z,996.77
2016-03-23T02:22:50.880Z,996.72
2016-03-23T02:23:50.898Z,996.73
2016-03-23T02:24:50.916Z,996.75
2016-03-23T02:25:50.935Z,996.66
2016-03-23T02:26:50.953Z,996.71
2016-03-23T02:27:50.971Z,996.66
2016-03-23T02:28:50.974Z,996.68
2016-03-23T02:29:50.992Z,996.7
2016-03-23T02:30:51.010Z,996.7
2016-03-23T02:31:51.030Z,996.72
2016-03-23T02:32:51.047Z,996.7
2016-03-23T02:33:51.066Z,996.69
2016-03-23T02:34:51.083Z,996.69
2016-03-23T02:35:51.102Z,996.66
2016-03-23T02:36:51.121Z,996.68
2016-03-23T02:37:51.123Z,996.66
2016-03-23T02:38:51.141Z,996.7
2016-03-23T02:39:51.175Z,996.73
2016-03-23T02:40:51.179Z,996.72
2016-03-23T02:41:51.196Z,996.72
2016-03-23T02:42:51.215Z,996.73
2016-03-23T02:43:51.233Z,996.7
2016-03-23T02:44:51.251Z,996.66
2016-03-23T02:45:51.270Z,996.69
2016-03-23T02:46:51.287Z,996.67
2016-03-23T02:47:51.307Z,996.67
2016-03-23T02:48:51.325Z,996.67
2016-03-23T02:49:51.343Z,996.64
2016-03-23T02:50:51.361Z,996.65
2016-03-23T02:51:51.364Z,996.62
2016-03-23T02:52:51.382Z,996.62
2016-03-23T02:53:51.400Z,996.63
2016-03-23T02:54:51.420Z,996.61
2016-03-23T02:55:51.437Z,996.61
2016-03-23T02:56:51.456Z,996.55
2016-03-23T02:57:51.475Z,996.57
2016-03-23T02:58:51.477Z,996.57
2016-03-23T02:59:51.511Z,996.53
2016-03-23T03:00:51.513Z,996.56
2016-03-23T03:01:51.531Z,996.58
2016-03-23T03:02:51.550Z,996.56
2016-03-23T03:03:51.568Z,996.51
2016-03-23T03:04:51.586Z,996.51
2016-03-23T03:05:51.605Z,996.49
2016-03-23T03:06:51.624Z,996.5
2016-03-23T03:07:51.641Z,996.49
2016-03-23T03:08:51.660Z,996.51
2016-03-23T03:09:51.678Z,996.52
2016-03-23T03:10:51.681Z,996.47
2016-03-23T03:11:51.699Z,996.5
2016-03-23T03:12:51.717Z,996.47
2016-03-23T03:13:51.735Z,996.48
2016-03-23T03:14:51.754Z,996.49
2016-03-23T03:15:51.772Z,996.46
2016-03-23T03:16:51.791Z,996.43
2016-03-23T03:17:51.809Z,996.46
2016-03-23T03:18:51.826Z,996.47
2016-03-23T03:19:51.845Z,996.46
2016-03-23T03:20:51.864Z,996.49
2016-03-23T03:21:51.867Z,996.47
2016-03-23T03:22:51.884Z,996.47
2016-03-23T03:23:51.903Z,996.43
2016-03-23T03:24:51.937Z,996.4
2016-03-23T03:25:51.939Z,996.41
2016-03-23T03:26:51.958Z,996.43
2016-03-23T03:27:51.961Z,996.43
2016-03-23T03:28:51.995Z,996.4
2016-03-23T03:29:51.997Z,996.41
2016-03-23T03:30:52.017Z,996.44
2016-03-23T03:31:52.034Z,996.49
2016-03-23T03:32:52.054Z,996.43
2016-03-23T03:33:52.072Z,996.44
2016-03-23T03:34:52.089Z,996.45
2016-03-23T03:35:52.108Z,996.47
2016-03-23T03:36:52.111Z,996.43
2016-03-23T03:37:52.129Z,996.44
2016-03-23T03:38:52.147Z,996.46
2016-03-23T03:39:52.166Z,996.46
2016-03-23T03:40:52.184Z,996.43
2016-03-23T03:41:52.202Z,996.45
2016-03-23T03:42:52.222Z,996.46
2016-03-23T03:43:52.442Z,996.46
2016-03-23T03:44:52.258Z,996.41
2016-03-23T03:45:52.275Z,996.41
2016-03-23T03:46:52.278Z,996.44
2016-03-23T03:47:52.297Z,996.43
2016-03-23T03:48:52.315Z,996.42
2016-03-23T03:49:52.333Z,996.43
2016-03-23T03:50:52.352Z,996.41
2016-03-23T03:51:52.370Z,996.46
2016-03-23T03:52:52.388Z,996.41
2016-03-23T03:53:52.407Z,996.43
2016-03-23T03:54:52.425Z,996.41
2016-03-23T03:55:52.443Z,996.43
2016-03-23T03:56:52.462Z,996.39
2016-03-23T03:57:52.465Z,996.39
2016-03-23T03:58:52.482Z,996.37
2016-03-23T03:59:52.501Z,996.39
2016-03-23T04:00:52.520Z,996.4
2016-03-23T04:01:52.537Z,996.39
2016-03-23T04:02:52.556Z,996.39
2016-03-23T04:03:52.574Z,996.37
2016-03-23T04:04:52.593Z,996.39
2016-03-23T04:05:52.595Z,996.37
2016-03-23T04:06:52.614Z,996.37
2016-03-23T04:07:52.631Z,996.39
2016-03-23T04:08:52.650Z,996.38
2016-03-23T04:09:52.669Z,996.36
2016-03-23T04:10:52.686Z,996.36
2016-03-23T04:11:52.706Z,996.32
2016-03-23T04:12:52.723Z,996.37
2016-03-23T04:13:52.742Z,996.36
2016-03-23T04:14:52.760Z,996.38
2016-03-23T04:15:52.763Z,996.37
2016-03-23T04:16:52.781Z,996.34
2016-03-23T04:17:52.799Z,996.37
2016-03-23T04:18:52.818Z,996.37
2016-03-23T04:19:52.835Z,996.34
2016-03-23T04:20:52.854Z,996.35
2016-03-23T04:21:52.872Z,996.37
2016-03-23T04:22:52.890Z,996.38
2016-03-23T04:23:52.909Z,996.34
2016-03-23T04:24:52.927Z,996.39
2016-03-23T04:25:52.929Z,996.42
2016-03-23T04:26:52.948Z,996.39
2016-03-23T04:27:52.967Z,996.4
2016-03-23T04:28:53.000Z,996.39
2016-03-23T04:29:53.003Z,996.37
2016-03-23T04:30:53.021Z,996.39
2016-03-23T04:31:53.040Z,996.39
2016-03-23T04:32:53.058Z,996.39
2016-03-23T04:33:53.061Z,996.4
2016-03-23T04:34:53.095Z,996.38
2016-03-23T04:35:53.097Z,996.32
2016-03-23T04:36:53.116Z,996.33
2016-03-23T04:37:53.665Z,996.36
2016-03-23T04:38:53.168Z,996.35
2016-03-23T04:39:53.170Z,996.33
2016-03-23T04:40:53.189Z,996.36
2016-03-23T04:41:53.208Z,996.39
2016-03-23T04:42:53.226Z,996.35
2016-03-23T04:43:53.244Z,996.34
2016-03-23T04:44:53.263Z,996.35
2016-03-23T04:45:53.281Z,996.34
2016-03-23T04:46:53.283Z,996.34
2016-03-23T04:47:53.302Z,996.32
2016-03-23T04:48:53.320Z,996.31
2016-03-23T04:49:53.339Z,996.32
2016-03-23T04:50:53.357Z,996.28
2016-03-23T04:51:53.374Z,996.31
2016-03-23T04:52:53.378Z,996.29
2016-03-23T04:53:53.396Z,996.28
2016-03-23T04:54:53.415Z,996.26
2016-03-23T04:55:53.433Z,996.28
2016-03-23T04:56:53.451Z,996.29
2016-03-23T04:57:53.469Z,996.26
2016-03-23T04:58:53.487Z,996.31
2016-03-23T04:59:53.507Z,996.28
2016-03-23T05:00:53.524Z,996.27
2016-03-23T05:01:53.543Z,996.3
2016-03-23T05:02:53.545Z,996.26
2016-03-23T05:03:53.564Z,996.27
2016-03-23T05:04:53.581Z,996.29
2016-03-23T05:05:53.601Z,996.27
2016-03-23T05:06:53.634Z,996.28
2016-03-23T05:07:53.637Z,996.3
2016-03-23T05:08:53.655Z,996.32
2016-03-23T05:09:53.658Z,996.3
2016-03-23T05:10:53.692Z,996.3
2016-03-23T05:11:53.694Z,996.33
2016-03-23T05:12:53.713Z,996.32
2016-03-23T05:13:53.746Z,996.3
2016-03-23T05:14:53.750Z,996.29
2016-03-23T05:15:53.764Z,996.3
2016-03-23T05:16:53.773Z,996.3
2016-03-23T05:17:53.781Z,996.29
2016-03-23T05:18:53.788Z,996.33
2016-03-23T05:19:53.797Z,996.3
2016-03-23T05:20:53.791Z,996.31
2016-03-23T05:21:53.806Z,996.32
2016-03-23T05:22:53.820Z,996.33
2016-03-23T05:23:53.835Z,996.34
2016-03-23T05:24:53.850Z,996.35
2016-03-23T05:25:53.866Z,996.36
2016-03-23T05:26:53.883Z,996.38
2016-03-23T05:27:53.899Z,996.32
2016-03-23T05:28:53.916Z,996.36
2016-03-23T05:29:53.933Z,996.35
2016-03-23T05:30:53.934Z,996.38
2016-03-23T05:31:53.952Z,996.35
2016-03-23T05:32:53.971Z,996.37
2016-03-23T05:33:53.988Z,996.37
2016-03-23T05:34:54.006Z,996.38
2016-03-23T05:35:54.025Z,996.4
2016-03-23T05:36:54.042Z,996.39
2016-03-23T05:37:54.061Z,996.41
2016-03-23T05:38:54.079Z,996.41
2016-03-23T05:39:54.082Z,996.4
2016-03-23T05:40:54.100Z,996.46
2016-03-23T05:41:54.118Z,996.39
2016-03-23T05:42:54.136Z,996.43
2016-03-23T05:43:54.154Z,996.41
2016-03-23T05:44:54.173Z,996.42
2016-03-23T05:45:54.191Z,996.43
2016-03-23T05:46:54.210Z,996.41
2016-03-23T05:47:54.229Z,996.35
2016-03-23T05:48:54.231Z,996.41
2016-03-23T05:49:54.249Z,996.42
2016-03-23T05:50:54.267Z,996.41
2016-03-23T05:51:54.285Z,996.4
2016-03-23T05:52:54.304Z,996.43
2016-03-23T05:53:54.323Z,996.46
2016-03-23T05:54:54.340Z,996.44
2016-03-23T05:55:54.360Z,996.45
2016-03-23T05:56:54.378Z,996.45
2016-03-23T05:57:54.396Z,996.43
2016-03-23T05:58:54.415Z,996.42
2016-03-23T05:59:54.432Z,996.43
2016-03-23T06:00:54.435Z,996.44
2016-03-23T06:01:54.453Z,996.47
2016-03-23T06:02:54.472Z,996.46
2016-03-23T06:03:54.506Z,996.45
2016-03-23T06:04:54.508Z,996.48
2016-03-23T06:05:54.527Z,996.48
2016-03-23T06:06:54.554Z,996.51
2016-03-23T06:07:54.551Z,996.53
2016-03-23T06:08:54.570Z,996.54
2016-03-23T06:09:54.588Z,996.53
2016-03-23T06:10:54.607Z,996.56
2016-03-23T06:11:54.625Z,996.6
2016-03-23T06:12:54.643Z,996.57
2016-03-23T06:13:54.662Z,996.56
2016-03-23T06:14:54.679Z,996.59
2016-03-23T06:15:54.698Z,996.57
2016-03-23T06:16:54.700Z,996.6
2016-03-23T06:17:54.734Z,996.6
2016-03-23T06:18:54.737Z,996.65
2016-03-23T06:19:54.756Z,996.64
2016-03-23T06:20:54.775Z,996.63
2016-03-23T06:21:54.792Z,996.64
2016-03-23T06:22:54.811Z,996.61
2016-03-23T06:23:54.828Z,996.59
2016-03-23T06:24:54.847Z,996.63
2016-03-23T06:25:54.866Z,996.62
2016-03-23T06:26:54.869Z,996.63
2016-03-23T06:27:54.886Z,996.61
2016-03-23T06:28:54.905Z,996.63
2016-03-23T06:29:54.923Z,996.63
2016-03-23T06:30:54.941Z,996.6
2016-03-23T06:31:54.960Z,996.57
2016-03-23T06:32:54.978Z,996.58
2016-03-23T06:33:54.997Z,996.57
2016-03-23T06:34:55.015Z,996.59
2016-03-23T06:35:55.033Z,996.58
2016-03-23T06:36:55.051Z,996.57
2016-03-23T06:37:55.054Z,996.57
2016-03-23T06:38:55.088Z,996.57
2016-03-23T06:39:55.090Z,996.55
2016-03-23T06:40:55.109Z,996.53
2016-03-23T06:41:55.126Z,996.52
2016-03-23T06:42:55.145Z,996.5
2016-03-23T06:43:55.164Z,996.55
2016-03-23T06:44:55.182Z,996.54
2016-03-23T06:45:55.201Z,996.56
2016-03-23T06:46:55.219Z,996.55
2016-03-23T06:47:55.237Z,996.56
2016-03-23T06:48:55.239Z,996.48
2016-03-23T06:49:55.258Z,996.51
2016-03-23T06:50:55.276Z,996.45
2016-03-23T06:51:55.294Z,996.5
2016-03-23T06:52:55.313Z,996.48
2016-03-23T06:53:55.331Z,996.54
2016-03-23T06:54:55.350Z,996.51
2016-03-23T06:55:55.369Z,996.49
2016-03-23T06:56:55.387Z,996.52
2016-03-23T06:57:55.405Z,996.52
2016-03-23T06:58:55.423Z,996.51
2016-03-23T06:59:55.442Z,996.49
2016-03-23T07:00:55.444Z,996.5
2016-03-23T07:01:55.463Z,996.44
2016-03-23T07:02:55.481Z,996.46
2016-03-23T07:03:55.499Z,996.45
2016-03-23T07:04:55.518Z,996.46
2016-03-23T07:05:55.535Z,996.46
2016-03-23T07:06:55.554Z,996.46
2016-03-23T07:07:55.571Z,996.46
2016-03-23T07:08:55.591Z,996.47
2016-03-23T07:09:55.609Z,996.46
2016-03-23T07:10:55.627Z,996.46
2016-03-23T07:11:55.646Z,996.48
2016-03-23T07:12:55.664Z,996.49
2016-03-23T07:13:55.682Z,996.48
2016-03-23T07:14:55.700Z,996.52
2016-03-23T07:15:55.718Z,996.49
2016-03-23T07:16:55.721Z,996.48
2016-03-23T07:17:55.739Z,996.48
2016-03-23T07:18:55.758Z,996.46
2016-03-23T07:19:55.776Z,996.48
2016-03-23T07:20:55.794Z,996.47
2016-03-23T07:21:55.813Z,996.45
2016-03-23T07:22:55.831Z,996.48
2016-03-23T07:23:55.850Z,996.52
2016-03-23T07:24:55.868Z,996.48
2016-03-23T07:25:55.886Z,996.56
2016-03-23T07:26:55.905Z,996.53
2016-03-23T07:27:55.922Z,996.54
2016-03-23T07:28:55.941Z,996.55
2016-03-23T07:29:55.960Z,996.55
2016-03-23T07:30:55.978Z,996.51
2016-03-23T07:31:55.996Z,996.5
2016-03-23T07:32:55.999Z,996.48
2016-03-23T07:33:56.033Z,996.5
2016-03-23T07:34:56.035Z,996.51
2016-03-23T07:35:56.054Z,996.5
2016-03-23T07:36:56.072Z,996.47
2016-03-23T07:37:56.090Z,996.48
2016-03-23T07:38:56.109Z,996.48
2016-03-23T07:39:56.126Z,996.49
2016-03-23T07:40:56.145Z,996.47
2016-03-23T07:41:56.163Z,996.51
2016-03-23T07:42:56.181Z,996.47
2016-03-23T07:43:56.201Z,996.5
2016-03-23T07:44:56.218Z,996.46
2016-03-23T07:45:56.237Z,996.5
2016-03-23T07:46:56.256Z,996.47
2016-03-23T07:47:56.273Z,996.45
2016-03-23T07:48:56.292Z,996.5
2016-03-23T07:49:56.310Z,996.46
2016-03-23T07:50:56.328Z,996.46
2016-03-23T07:51:56.331Z,996.44
2016-03-23T07:52:56.364Z,996.44
2016-03-23T07:53:56.383Z,996.42
2016-03-23T07:54:56.386Z,996.45
2016-03-23T07:55:56.404Z,996.43
2016-03-23T07:56:56.423Z,996.44
2016-03-23T07:57:56.441Z,996.46
2016-03-23T07:58:56.459Z,996.46
2016-03-23T07:59:56.508Z,996.49
2016-03-23T08:00:56.496Z,996.49
2016-03-23T08:01:56.514Z,996.44
2016-03-23T08:02:56.533Z,996.45
2016-03-23T08:03:56.552Z,996.42
2016-03-23T08:04:56.569Z,996.48
2016-03-23T08:05:56.588Z,996.47
2016-03-23T08:06:56.605Z,996.44
2016-03-23T08:07:56.624Z,996.41
2016-03-23T08:08:56.658Z,996.42
2016-03-23T08:09:56.660Z,996.42
2016-03-23T08:10:56.679Z,996.4
2016-03-23T08:11:56.697Z,996.44
2016-03-23T08:12:56.715Z,996.41
2016-03-23T08:13:56.734Z,996.38
2016-03-23T08:14:56.768Z,996.35
2016-03-23T08:15:56.770Z,996.36
2016-03-23T08:16:56.789Z,996.36
2016-03-23T08:17:56.807Z,996.37
2016-03-23T08:18:56.825Z,996.39
2016-03-23T08:19:56.845Z,996.39
2016-03-23T08:20:56.862Z,996.41
2016-03-23T08:21:56.881Z,996.43
2016-03-23T08:22:56.898Z,996.41
2016-03-23T08:23:56.917Z,996.37
2016-03-23T08:24:56.936Z,996.41
2016-03-23T08:25:56.953Z,996.42
2016-03-23T08:26:56.972Z,996.42
2016-03-23T08:27:56.991Z,996.38
2016-03-23T08:28:57.008Z,996.4
2016-03-23T08:29:57.028Z,996.39
2016-03-23T08:30:57.045Z,996.37
2016-03-23T08:31:57.048Z,996.4
2016-03-23T08:32:57.066Z,996.36
2016-03-23T08:33:57.100Z,996.37
2016-03-23T08:34:57.103Z,996.32
2016-03-23T08:35:57.121Z,996.35
2016-03-23T08:36:57.155Z,996.32
2016-03-23T08:37:57.173Z,996.33
2016-03-23T08:38:57.192Z,996.32
2016-03-23T08:39:57.210Z,996.34
2016-03-23T08:40:57.229Z,996.32
2016-03-23T08:41:57.247Z,996.32
2016-03-23T08:42:57.249Z,996.31
2016-03-23T08:43:57.283Z,996.3
2016-03-23T08:44:57.302Z,996.34
2016-03-23T08:45:57.320Z,996.35
2016-03-23T08:46:57.323Z,996.32
2016-03-23T08:47:57.356Z,996.29
2016-03-23T08:48:57.375Z,996.28
2016-03-23T08:49:57.393Z,996.32
2016-03-23T08:50:57.411Z,996.32
2016-03-23T08:51:57.431Z,996.31
2016-03-23T08:52:57.448Z,996.31
2016-03-23T08:53:57.466Z,996.3
2016-03-23T08:54:57.484Z,996.34
2016-03-23T08:55:57.503Z,996.33
2016-03-23T08:56:57.522Z,996.36
2016-03-23T08:57:57.539Z,996.36
2016-03-23T08:58:57.558Z,996.32
2016-03-23T08:59:57.592Z,996.3
2016-03-23T09:00:57.594Z,996.28
2016-03-23T09:01:57.614Z,996.3
2016-03-23T09:02:57.631Z,996.32
2016-03-23T09:03:57.650Z,996.29
2016-03-23T09:04:57.668Z,996.3
2016-03-23T09:05:57.686Z,996.27
2016-03-23T09:06:57.705Z,996.3
2016-03-23T09:07:57.723Z,996.24
2016-03-23T09:08:57.741Z,996.25
2016-03-23T09:09:57.759Z,996.23
2016-03-23T09:10:57.778Z,996.27
2016-03-23T09:11:57.812Z,996.27
2016-03-23T09:12:57.830Z,996.27
2016-03-23T09:13:57.832Z,996.33
2016-03-23T09:14:57.851Z,996.32
2016-03-23T09:15:57.870Z,996.34
2016-03-23T09:16:57.888Z,996.35
2016-03-23T09:17:57.906Z,996.32
2016-03-23T09:18:57.924Z,996.31
2016-03-23T09:19:57.942Z,996.25
2016-03-23T09:20:57.961Z,996.31
2016-03-23T09:21:57.995Z,996.25
2016-03-23T09:22:58.013Z,996.3
2016-03-23T09:23:58.032Z,996.32
2016-03-23T09:24:58.050Z,996.33
2016-03-23T09:25:58.067Z,996.28
2016-03-23T09:26:58.086Z,996.3
2016-03-23T09:27:58.105Z,996.33
2016-03-23T09:28:58.123Z,996.31
2016-03-23T09:29:58.141Z,996.31
2016-03-23T09:30:58.160Z,996.28
2016-03-23T09:31:58.178Z,996.31
2016-03-23T09:32:58.196Z,996.28
2016-03-23T09:33:58.215Z,996.32
2016-03-23T09:34:58.233Z,996.27
2016-03-23T09:35:58.251Z,996.27
2016-03-23T09:36:58.269Z,996.28
2016-03-23T09:37:58.288Z,996.3
2016-03-23T09:38:58.307Z,996.34
2016-03-23T09:39:58.324Z,996.3
2016-03-23T09:40:58.343Z,996.35
2016-03-23T09:41:58.361Z,996.32
2016-03-23T09:42:58.395Z,996.37
2016-03-23T09:43:58.399Z,996.28
2016-03-23T09:44:58.416Z,996.36
2016-03-23T09:45:58.435Z,996.34
2016-03-23T09:46:58.469Z,996.34
2016-03-23T09:47:58.487Z,996.34
2016-03-23T09:48:58.505Z,996.38
2016-03-23T09:49:58.523Z,996.38
2016-03-23T09:50:58.541Z,996.36
2016-03-23T09:51:58.559Z,996.33
2016-03-23T09:52:58.578Z,996.34
2016-03-23T09:53:58.597Z,996.36
2016-03-23T09:54:58.615Z,996.36
2016-03-23T09:55:58.634Z,996.34
2016-03-23T09:56:58.651Z,996.31
2016-03-23T09:57:58.669Z,996.31
2016-03-23T09:58:58.704Z,996.34
2016-03-23T09:59:58.706Z,996.31
2016-03-23T10:00:58.724Z,996.32
2016-03-23T10:01:58.758Z,996.3
2016-03-23T10:02:58.761Z,996.3
2016-03-23T10:03:58.795Z,996.35
2016-03-23T10:04:58.814Z,996.32
2016-03-23T10:05:58.832Z,996.35
2016-03-23T10:06:58.850Z,996.33
2016-03-23T10:07:58.868Z,996.37
2016-03-23T10:08:58.888Z,996.38
2016-03-23T10:09:58.905Z,996.31
2016-03-23T10:10:58.924Z,996.32
2016-03-23T10:11:58.941Z,996.37
2016-03-23T10:12:58.960Z,996.33
2016-03-23T10:13:58.979Z,996.28
2016-03-23T10:14:59.012Z,996.29
2016-03-23T10:15:59.032Z,996.28
2016-03-23T10:16:59.049Z,996.31
2016-03-23T10:17:59.067Z,996.27
2016-03-23T10:18:59.086Z,996.26
2016-03-23T10:19:59.104Z,996.21
2016-03-23T10:20:59.123Z,996.23
2016-03-23T10:21:59.140Z,996.21
2016-03-23T10:22:59.159Z,996.21
2016-03-23T10:23:59.177Z,996.22
2016-03-23T10:24:59.212Z,996.23
2016-03-23T10:25:59.214Z,996.23
2016-03-23T10:26:59.247Z,996.2
2016-03-23T10:27:59.266Z,996.22
2016-03-23T10:28:59.284Z,996.19
2016-03-23T10:29:59.303Z,996.16
2016-03-23T10:30:59.336Z,996.19
2016-03-23T10:31:59.339Z,996.12
2016-03-23T10:32:59.358Z,996.17
2016-03-23T10:33:59.375Z,996.15
2016-03-23T10:34:59.395Z,996.18
2016-03-23T10:35:59.413Z,996.18
2016-03-23T10:36:59.430Z,996.25
2016-03-23T10:37:59.465Z,996.2
2016-03-23T10:38:59.483Z,996.23
2016-03-23T10:39:59.502Z,996.17
2016-03-23T10:40:59.519Z,996.22
2016-03-23T10:41:59.538Z,996.19
2016-03-23T10:42:59.557Z,996.2
2016-03-23T10:43:59.574Z,996.2
2016-03-23T10:44:59.594Z,996.13
2016-03-23T10:45:59.627Z,996.13
2016-03-23T10:46:59.646Z,996.15
2016-03-23T10:47:59.663Z,996.14
2016-03-23T10:48:59.682Z,996.14
2016-03-23T10:49:59.700Z,996.13
2016-03-23T10:50:59.718Z,996.09
2016-03-23T10:51:59.737Z,996.12
2016-03-23T10:52:59.755Z,996.11
2016-03-23T10:53:59.789Z,996.12
2016-03-23T10:54:59.792Z,996.1
2016-03-23T10:55:59.826Z,996.12
2016-03-23T10:56:59.844Z,996.13
2016-03-23T10:57:59.862Z,996.16
2016-03-23T10:58:59.881Z,996.12
2016-03-23T10:59:59.899Z,996.13
2016-03-23T11:00:59.922Z,996.14
2016-03-23T11:01:59.941Z,996.1
2016-03-23T11:02:59.959Z,996.09
2016-03-23T11:03:59.977Z,996.09
2016-03-23T11:04:59.996Z,996.08
2016-03-23T11:06:00.029Z,996.05
2016-03-23T11:07:00.047Z,996.04
2016-03-23T11:08:00.066Z,996.07
2016-03-23T11:09:00.085Z,996.03
2016-03-23T11:10:00.102Z,996.06
2016-03-23T11:11:00.121Z,996.04
2016-03-23T11:12:00.140Z,996.01
2016-03-23T11:13:00.157Z,996.09
2016-03-23T11:14:00.176Z,996.06
2016-03-23T11:15:00.209Z,996.13
2016-03-23T11:16:00.229Z,996.07
2016-03-23T11:17:00.246Z,996.09
2016-03-23T11:18:00.264Z,996.08
2016-03-23T11:19:00.284Z,996.08
2016-03-23T11:20:00.301Z,996.11
2016-03-23T11:21:00.320Z,996.1
2016-03-23T11:22:00.354Z,996.21
2016-03-23T11:23:00.372Z,996.19
2016-03-23T11:24:00.390Z,996.21
2016-03-23T11:25:00.408Z,996.21
2016-03-23T11:26:00.443Z,996.21
2016-03-23T11:27:00.445Z,996.21
2016-03-23T11:28:00.464Z,996.21
2016-03-23T11:29:00.482Z,996.18
2016-03-23T11:30:00.500Z,996.17
2016-03-23T11:31:00.534Z,996.2
2016-03-23T11:32:00.553Z,996.14
2016-03-23T11:33:00.572Z,996.13
2016-03-23T11:34:00.589Z,996.13
2016-03-23T11:35:00.607Z,996.12
2016-03-23T11:36:00.626Z,996.09
2016-03-23T11:37:00.644Z,996.11
2016-03-23T11:38:00.663Z,996.12
2016-03-23T11:39:00.696Z,996.08
2016-03-23T11:40:00.715Z,996.07
2016-03-23T11:41:00.732Z,996.11
2016-03-23T11:42:00.752Z,996.12
2016-03-23T11:43:00.769Z,996.08
2016-03-23T11:44:00.787Z,996.05
2016-03-23T11:45:00.806Z,996.08
2016-03-23T11:46:00.824Z,996.04
2016-03-23T11:47:00.874Z,996.07
2016-03-23T11:48:00.907Z,996.04
2016-03-23T11:49:00.895Z,996
2016-03-23T11:50:00.960Z,996.01
2016-03-23T11:51:00.931Z,996.02
2016-03-23T11:52:00.951Z,996.05
2016-03-23T11:53:00.984Z,996.01
2016-03-23T11:54:00.987Z,995.99
2016-03-23T11:55:01.020Z,995.94
2016-03-23T11:56:01.039Z,996.02
2016-03-23T11:57:01.057Z,995.99
2016-03-23T11:58:01.075Z,995.95
2016-03-23T11:59:01.094Z,995.95
2016-03-23T12:00:01.128Z,995.93
2016-03-23T12:01:01.130Z,995.92
2016-03-23T12:02:01.150Z,995.94
2016-03-23T12:03:01.183Z,995.9
2016-03-23T12:04:01.200Z,995.85
2016-03-23T12:05:01.219Z,995.87
2016-03-23T12:06:01.238Z,995.84
2016-03-23T12:07:01.256Z,995.83
2016-03-23T12:08:01.274Z,995.89
2016-03-23T12:09:01.293Z,995.91
2016-03-23T12:10:01.326Z,995.88
2016-03-23T12:11:01.344Z,995.9
2016-03-23T12:12:01.363Z,995.85
2016-03-23T12:13:01.382Z,995.87
2016-03-23T12:14:01.415Z,995.86
2016-03-23T12:15:01.418Z,995.87
2016-03-23T12:16:01.452Z,995.84
2016-03-23T12:17:01.455Z,995.85
2016-03-23T12:18:01.473Z,995.88
2016-03-23T12:19:01.507Z,995.82
2016-03-23T12:20:01.525Z,995.86
2016-03-23T12:21:01.544Z,995.85
2016-03-23T12:22:01.578Z,995.84
2016-03-23T12:23:01.581Z,995.84
2016-03-23T12:24:01.598Z,995.82
2016-03-23T12:25:01.632Z,995.84
2016-03-23T12:26:01.651Z,995.84
2016-03-23T12:27:01.669Z,995.83
2016-03-23T12:28:01.687Z,995.81
2016-03-23T12:29:01.706Z,995.79
2016-03-23T12:30:01.724Z,995.79
2016-03-23T12:31:01.742Z,995.79
2016-03-23T12:32:01.761Z,995.84